James K. Goodwin — WDJ7743 — position and weather

sailwx.info

Track history (hours):
 
Tides and Currents Weather Stations Pressure Air Temp Water Temp Dewpoint Dewpoint Depression Visibility Wind Speed Wind Dir Waves Ship Positions

James K. Goodwin

Owner: Goodwin, Joshua D, Hull, MA. More information available from US FCC via Universal Licensing System and Coast Guard Vessel Documentation Center.

Last reported at 2018-Apr-26 10:58 UTC. Time now 2018-Apr-26 11:25 UTC.
Position N 42°15' W 070°58'.

Length 32 m; draft 3 m.

Type: Passenger vessel. MMSI: 367110550.

Date/timePositionNaut miles runAvg speedWind from/ knotsBaromVisibWave heightAir tempDewpointWater temp
2018-Apr-26 10:58N 42°15' W 070°58'0 0.0
2018-Apr-26 10:30N 42°15' W 070°58'0 0.0
2018-Apr-26 10:00N 42°15' W 070°58'0 0.0
2018-Apr-26 09:28N 42°15' W 070°58'0 0.0
2018-Apr-26 09:00N 42°15' W 070°58'0 0.0
2018-Apr-26 08:30N 42°15' W 070°58'0 0.0
2018-Apr-26 08:01N 42°15' W 070°58'0 0.0
2018-Apr-26 07:27N 42°15' W 070°58'0 0.0
2018-Apr-26 07:01N 42°15' W 070°58'0 0.0
2018-Apr-26 06:31N 42°15' W 070°58'0 0.0
2018-Apr-26 06:00N 42°15' W 070°58'0 0.0
2018-Apr-26 05:30N 42°15' W 070°58'0 0.0
2018-Apr-26 05:00N 42°15' W 070°58'0 0.0
2018-Apr-26 04:30N 42°15' W 070°58'0 0.0
2018-Apr-26 04:00N 42°15' W 070°58'0 0.0
2018-Apr-26 03:30N 42°15' W 070°58'0 0.0
2018-Apr-26 03:00N 42°15' W 070°58'0 0.0
2018-Apr-26 02:30N 42°15' W 070°58'0 0.0
2018-Apr-26 02:00N 42°15' W 070°58'0 0.0
2018-Apr-26 01:30N 42°15' W 070°58'0 0.0
2018-Apr-26 00:56N 42°15' W 070°58'0 0.0
2018-Apr-26 00:30N 42°15' W 070°58'0 0.0
2018-Apr-26 00:00N 42°15' W 070°58'0 0.0
2018-Apr-25 23:30N 42°15' W 070°58'0 0.0
2018-Apr-25 22:58N 42°15' W 070°58'0 0.0
2018-Apr-25 22:30N 42°15' W 070°58'0 0.0
2018-Apr-25 22:00N 42°15' W 070°58'0 0.0
2018-Apr-25 21:30N 42°15' W 070°58'0 0.0
2018-Apr-25 21:00N 42°15' W 070°58'0 0.0
2018-Apr-25 20:30N 42°15' W 070°58'0 0.0
2018-Apr-25 20:00N 42°15' W 070°58'0 0.0
2018-Apr-25 19:30N 42°15' W 070°58'0 0.0
2018-Apr-25 19:00N 42°15' W 070°58'0 0.0
2018-Apr-25 18:31N 42°15' W 070°58'0 0.0
2018-Apr-25 10:43N 42°15' W 070°58'0 0.0
2018-Apr-25 10:30N 42°15' W 070°58'0 0.0
2018-Apr-25 10:01N 42°15' W 070°58'0 0.0
2018-Apr-25 09:31N 42°15' W 070°58'0 0.0
2018-Apr-25 09:00N 42°15' W 070°58'0 0.0
2018-Apr-25 08:29N 42°15' W 070°58'0 0.0
2018-Apr-25 08:00N 42°15' W 070°58'0 0.0
2018-Apr-25 07:30N 42°15' W 070°58'0 0.0
2018-Apr-25 07:00N 42°15' W 070°58'0 0.0
2018-Apr-25 06:30N 42°15' W 070°58'0 0.0
2018-Apr-25 06:00N 42°15' W 070°58'0 0.0
2018-Apr-25 05:30N 42°15' W 070°58'0 0.0
2018-Apr-25 05:00N 42°15' W 070°58'0 0.0
2018-Apr-25 04:24N 42°15' W 070°58'0 0.1
2018-Apr-25 04:00N 42°15' W 070°58'0 0.7
2018-Apr-25 03:30N 42°15' W 070°58'0 0.0
2018-Apr-25 03:00N 42°15' W 070°58'0 0.1
2018-Apr-25 02:30N 42°15' W 070°58'1 1.3
2018-Apr-25 02:00N 42°15' W 070°58'1 2.8
2018-Apr-25 01:30N 42°16' W 070°56'1 2.9
2018-Apr-25 01:00N 42°17' W 070°56'3 5.0
2018-Apr-25 00:24N 42°15' W 070°58'613.5
2018-Apr-24 23:56N 42°19' W 070°52'4 7.5
2018-Apr-24 23:27N 42°17' W 070°56'3 7.5
2018-Apr-24 23:00N 42°19' W 070°53'4 8.3
2018-Apr-24 22:30N 42°21' W 070°47'4 8.0
2018-Apr-24 22:00N 42°22' W 070°42'4 8.1
2018-Apr-24 21:30N 42°22' W 070°37'3 5.9
2018-Apr-24 21:00N 42°23' W 070°33'0 0.6
2018-Apr-24 20:30N 42°23' W 070°33'1 1.3
2018-Apr-24 20:00N 42°23' W 070°34'0 0.2
2018-Apr-24 19:30N 42°23' W 070°34'0 0.8
2018-Apr-24 19:01N 42°23' W 070°33'0 0.5
2018-Apr-24 18:30N 42°23' W 070°33'0 0.1
2018-Apr-24 18:00N 42°23' W 070°33'0 0.1
2018-Apr-24 17:30N 42°23' W 070°33'0 0.7
2018-Apr-24 17:00N 42°23' W 070°34'0 0.2
2018-Apr-24 16:30N 42°23' W 070°34'1 2.8
2018-Apr-24 16:00N 42°23' W 070°36'1 2.5
2018-Apr-24 15:30N 42°23' W 070°37'1 1.4
2018-Apr-24 15:00N 42°23' W 070°38'3 6.3
2018-Apr-24 14:31N 42°22' W 070°42'5 9.0
2018-Apr-24 14:00N 42°21' W 070°48'5 9.4
2018-Apr-24 13:30N 42°19' W 070°54'4 8.6
2018-Apr-24 13:00N 42°15' W 070°57'1 3.0
2018-Apr-24 12:30N 42°15' W 070°58'0 0.0
2018-Apr-24 12:00N 42°15' W 070°58'0 0.0
2018-Apr-24 11:30N 42°15' W 070°58'0 0.7
2018-Apr-24 11:00N 42°15' W 070°58'0 0.0
2018-Apr-24 10:30N 42°15' W 070°58'0 0.0
2018-Apr-24 10:00N 42°15' W 070°58'0 0.0
2018-Apr-24 09:30N 42°15' W 070°58'0 0.0
2018-Apr-24 09:00N 42°15' W 070°58'0 0.0
2018-Apr-24 08:30N 42°15' W 070°58'0 0.0
2018-Apr-24 08:00N 42°15' W 070°58'0 0.0
2018-Apr-24 07:30N 42°15' W 070°58'0 0.0
2018-Apr-24 07:01N 42°15' W 070°58'0 0.0
2018-Apr-24 06:30N 42°15' W 070°58'0 0.0
2018-Apr-24 06:00N 42°15' W 070°58'0 0.0
2018-Apr-24 05:30N 42°15' W 070°58'0 0.0
2018-Apr-24 05:00N 42°15' W 070°58'0 0.0
2018-Apr-24 04:30N 42°15' W 070°58'0 0.0
2018-Apr-24 04:00N 42°15' W 070°58'0 0.0
2018-Apr-24 03:30N 42°15' W 070°58'0 0.0
2018-Apr-24 03:00N 42°15' W 070°58'0 0.0
2018-Apr-24 02:30N 42°15' W 070°58'0 0.0
2018-Apr-24 02:00N 42°15' W 070°58'0 0.5
2018-Apr-24 01:30N 42°15' W 070°58'0 0.1
2018-Apr-24 01:00N 42°15' W 070°58'0 0.0
2018-Apr-24 00:30N 42°15' W 070°58'0 0.4
2018-Apr-24 00:00N 42°15' W 070°58'0 0.0
2018-Apr-23 23:30N 42°15' W 070°58'0 0.0
2018-Apr-23 23:00N 42°15' W 070°58'0 0.0
2018-Apr-23 22:30N 42°15' W 070°58'0 0.0
2018-Apr-23 22:00N 42°15' W 070°58'0 0.0
2018-Apr-23 21:30N 42°15' W 070°58'0 0.0
2018-Apr-23 21:00N 42°15' W 070°58'0 0.0
2018-Apr-23 20:30N 42°15' W 070°58'0 0.0
2018-Apr-23 20:00N 42°15' W 070°58'0 0.0
2018-Apr-23 19:30N 42°15' W 070°58'0 0.0
2018-Apr-23 19:00N 42°15' W 070°58'0 0.0
2018-Apr-23 18:30N 42°15' W 070°58'0 0.0
2018-Apr-23 18:00N 42°15' W 070°58'0 0.0
2018-Apr-23 17:30N 42°15' W 070°58'0 0.0
2018-Apr-23 17:00N 42°15' W 070°58'0 0.0
2018-Apr-23 16:30N 42°15' W 070°58'0 0.0
2018-Apr-23 16:00N 42°15' W 070°58'0 0.0
2018-Apr-23 15:30N 42°15' W 070°58'0 0.0
2018-Apr-23 15:00N 42°15' W 070°58'0 0.0
2018-Apr-23 14:30N 42°15' W 070°58'0 0.0
2018-Apr-23 14:00N 42°15' W 070°58'0 0.0
2018-Apr-23 13:31N 42°15' W 070°58'0 0.0
2018-Apr-23 13:01N 42°15' W 070°58'0 0.0
2018-Apr-23 12:30N 42°15' W 070°58'0 0.0
2018-Apr-23 12:00N 42°15' W 070°58'0 0.0
2018-Apr-23 11:30N 42°15' W 070°58'0 0.0
2018-Apr-23 11:00N 42°15' W 070°58'0 0.0
2018-Apr-23 10:30N 42°15' W 070°58'0 0.0
2018-Apr-23 10:00N 42°15' W 070°58'0 0.0
2018-Apr-23 09:30N 42°15' W 070°58'0 0.0
2018-Apr-23 09:00N 42°15' W 070°58'0 0.0
2018-Apr-23 08:30N 42°15' W 070°58'0 0.0
2018-Apr-23 08:00N 42°15' W 070°58'0 0.0
2018-Apr-23 07:30N 42°15' W 070°58'0 0.0
2018-Apr-23 07:00N 42°15' W 070°58'0 0.0
2018-Apr-23 06:30N 42°15' W 070°58'0 0.0
2018-Apr-23 06:00N 42°15' W 070°58'0 0.0
2018-Apr-23 05:30N 42°15' W 070°58'0 0.0
2018-Apr-23 05:00N 42°15' W 070°58'0 0.0
2018-Apr-23 04:30N 42°15' W 070°58'0 0.0
2018-Apr-23 04:00N 42°15' W 070°58'0 0.0
2018-Apr-23 03:30N 42°15' W 070°58'0 0.0
2018-Apr-23 03:00N 42°15' W 070°58'0 0.0
2018-Apr-23 02:30N 42°15' W 070°58'0 0.0
2018-Apr-23 02:00N 42°15' W 070°58'0 0.0
2018-Apr-23 01:30N 42°15' W 070°58'0 0.0
2018-Apr-23 01:00N 42°15' W 070°58'0 0.0
2018-Apr-23 00:30N 42°15' W 070°58'0 0.0
2018-Apr-23 00:01N 42°15' W 070°58'0 0.0
2018-Apr-22 23:30N 42°15' W 070°58'0 0.0
2018-Apr-22 23:00N 42°15' W 070°58'0 0.0
2018-Apr-22 22:30N 42°15' W 070°58'0 0.0
2018-Apr-22 22:00N 42°15' W 070°58'0 0.0
2018-Apr-22 21:30N 42°15' W 070°58'0 0.0
2018-Apr-22 21:01N 42°15' W 070°58'0 0.0
2018-Apr-22 20:30N 42°15' W 070°58'0 0.0
2018-Apr-22 20:00N 42°15' W 070°58'0 0.0
2018-Apr-22 19:30N 42°15' W 070°58'0 0.0
2018-Apr-22 19:00N 42°15' W 070°58'0 0.0
2018-Apr-22 18:31N 42°15' W 070°58'0 0.0
2018-Apr-22 18:00N 42°15' W 070°58'0 0.0
2018-Apr-22 17:30N 42°15' W 070°58'0 0.0
2018-Apr-22 17:00N 42°15' W 070°58'0 0.0
2018-Apr-22 16:30N 42°15' W 070°58'0 0.0
2018-Apr-22 16:00N 42°15' W 070°58'0 0.0
2018-Apr-22 15:31N 42°15' W 070°58'0 0.0
2018-Apr-22 15:00N 42°15' W 070°58'0 0.0
2018-Apr-22 14:30N 42°15' W 070°58'0 0.0
2018-Apr-22 14:00N 42°15' W 070°58'0 0.0
2018-Apr-22 13:30N 42°15' W 070°58'0 0.0
2018-Apr-22 13:00N 42°15' W 070°58'0 0.0
2018-Apr-22 12:30N 42°15' W 070°58'0 0.0
2018-Apr-22 12:00N 42°15' W 070°58'0 0.0
2018-Apr-22 11:30N 42°15' W 070°58'0 0.0
2018-Apr-22 11:00N 42°15' W 070°58'0 0.0
2018-Apr-22 10:30N 42°15' W 070°58'0 0.0
2018-Apr-22 10:00N 42°15' W 070°58'0 0.0
2018-Apr-22 09:30N 42°15' W 070°58'0 0.0
2018-Apr-22 09:00N 42°15' W 070°58'0 0.0
2018-Apr-22 08:30N 42°15' W 070°58'0 0.0
2018-Apr-22 08:00N 42°15' W 070°58'0 0.0
2018-Apr-22 07:30N 42°15' W 070°58'0 0.0
2018-Apr-22 06:57N 42°15' W 070°58'0 0.0
2018-Apr-22 06:28N 42°15' W 070°58'0 0.0
2018-Apr-22 05:51N 42°15' W 070°58'0 0.0
2018-Apr-22 05:30N 42°15' W 070°58'0 0.0
2018-Apr-22 04:57N 42°15' W 070°58'0 0.0
2018-Apr-22 04:29N 42°15' W 070°58'0 0.0
2018-Apr-22 03:55N 42°15' W 070°58'0 0.0
2018-Apr-22 03:26N 42°15' W 070°58'0 0.0
2018-Apr-22 02:49N 42°15' W 070°58'0 0.0
2018-Apr-22 02:29N 42°15' W 070°58'0 0.0
2018-Apr-22 01:56N 42°15' W 070°58'0 0.0
2018-Apr-22 01:30N 42°15' W 070°58'0 0.0
2018-Apr-22 00:48N 42°15' W 070°58'0 0.0
2018-Apr-22 00:27N 42°15' W 070°58'0 0.0
2018-Apr-22 00:00N 42°15' W 070°58'0 0.0
2018-Apr-21 23:30N 42°15' W 070°58'0 0.0
2018-Apr-21 22:58N 42°15' W 070°58'0 0.0
2018-Apr-21 22:30N 42°15' W 070°58'0 0.0
2018-Apr-21 21:57N 42°15' W 070°58'0 0.0
2018-Apr-21 21:30N 42°15' W 070°58'0 0.0
2018-Apr-21 21:00N 42°15' W 070°58'0 0.0
2018-Apr-21 20:26N 42°15' W 070°58'0 0.0
2018-Apr-21 19:50N 42°15' W 070°58'0 0.0
2018-Apr-21 19:15N 42°15' W 070°58'0 0.0
2018-Apr-21 18:48N 42°15' W 070°58'0 0.0
2018-Apr-21 18:27N 42°15' W 070°58'0 0.0
2018-Apr-21 17:55N 42°15' W 070°58'0 0.0
2018-Apr-21 17:30N 42°15' W 070°58'0 0.0
2018-Apr-21 16:40N 42°15' W 070°58'0 0.0
2018-Apr-21 15:48N 42°15' W 070°58'0 0.0
2018-Apr-21 15:21N 42°15' W 070°58'0 0.0
2018-Apr-21 14:55N 42°15' W 070°58'0 0.0
2018-Apr-21 14:25N 42°15' W 070°58'0 0.0
2018-Apr-21 13:57N 42°15' W 070°58'0 0.0
2018-Apr-21 13:29N 42°15' W 070°58'0 0.0
2018-Apr-21 12:05N 42°15' W 070°58'0 0.0
2018-Apr-21 11:43N 42°15' W 070°58'0 0.0
2018-Apr-21 11:18N 42°15' W 070°58'0 0.0
2018-Apr-21 10:43N 42°15' W 070°58'0 0.0
2018-Apr-21 10:25N 42°15' W 070°58'0 0.0
2018-Apr-21 09:56N 42°15' W 070°58'0 0.0
2018-Apr-21 09:11N 42°15' W 070°58'0 0.0
2018-Apr-21 08:31N 42°15' W 070°58'0 0.0
2018-Apr-21 06:50N 42°15' W 070°58'0 0.0
2018-Apr-21 06:24N 42°15' W 070°58'0 0.0
2018-Apr-21 05:36N 42°15' W 070°58'0 0.0
2018-Apr-21 05:05N 42°15' W 070°58'0 0.0
2018-Apr-21 04:52N 42°15' W 070°58'0 0.0
2018-Apr-21 04:24N 42°15' W 070°58'0 0.0
2018-Apr-21 03:46N 42°15' W 070°58'0 0.0
2018-Apr-21 03:15N 42°15' W 070°58'0 0.0
2018-Apr-21 02:56N 42°15' W 070°58'0 0.0
2018-Apr-21 02:30N 42°15' W 070°58'0 0.0
2018-Apr-21 02:00N 42°15' W 070°58'0 0.0
2018-Apr-21 01:30N 42°15' W 070°58'0 0.0
2018-Apr-21 00:57N 42°15' W 070°58'0 0.0
2018-Apr-21 00:27N 42°15' W 070°58'0 0.0
2018-Apr-20 23:58N 42°15' W 070°58'0 0.0
2018-Apr-20 23:21N 42°15' W 070°58'0 0.0
2018-Apr-20 22:57N 42°15' W 070°58'0 0.0
2018-Apr-20 22:26N 42°15' W 070°58'0 0.0
2018-Apr-20 21:10N 42°15' W 070°58'0 0.0
2018-Apr-20 20:09N 42°15' W 070°58'0 0.0
2018-Apr-20 19:47N 42°15' W 070°58'0 0.0
2018-Apr-20 19:11N 42°15' W 070°58'0 0.0
2018-Apr-20 18:56N 42°15' W 070°58'0 0.0
2018-Apr-20 18:25N 42°15' W 070°58'0 0.0
2018-Apr-20 17:11N 42°15' W 070°58'0 0.0
2018-Apr-20 16:02N 42°15' W 070°58'0 0.1
2018-Apr-20 15:58N 42°15' W 070°58'0 0.0
2018-Apr-20 15:29N 42°15' W 070°58'0 0.0
2018-Apr-20 13:18N 42°15' W 070°58'0 0.0
2018-Apr-20 12:51N 42°15' W 070°58'0 0.0
2018-Apr-20 12:12N 42°15' W 070°58'0 0.0
2018-Apr-20 11:44N 42°15' W 070°58'0 0.0
2018-Apr-20 11:18N 42°15' W 070°58'0 0.0
2018-Apr-20 10:43N 42°15' W 070°58'0 0.0
2018-Apr-20 10:23N 42°15' W 070°58'0 0.0
2018-Apr-20 09:42N 42°15' W 070°58'0 0.0
2018-Apr-20 09:23N 42°15' W 070°58'0 0.0
2018-Apr-20 09:00N 42°15' W 070°58'0 0.0
2018-Apr-20 08:14N 42°15' W 070°58'0 0.0
2018-Apr-20 07:51N 42°15' W 070°58'0 0.0
2018-Apr-20 07:26N 42°15' W 070°58'0 0.0
2018-Apr-20 07:00N 42°15' W 070°58'0 0.0
2018-Apr-20 06:29N 42°15' W 070°58'0 0.0
2018-Apr-20 06:00N 42°15' W 070°58'0 0.0
2018-Apr-20 05:30N 42°15' W 070°58'0 0.0
2018-Apr-20 05:00N 42°15' W 070°58'0 0.0
2018-Apr-20 04:31N 42°15' W 070°58'0 0.0
2018-Apr-20 03:59N 42°15' W 070°58'0 0.0
2018-Apr-20 03:30N 42°15' W 070°58'0 0.0
2018-Apr-20 03:00N 42°15' W 070°58'0 0.0
2018-Apr-20 02:31N 42°15' W 070°58'0 0.0
2018-Apr-20 01:59N 42°15' W 070°58'0 0.0
2018-Apr-20 01:31N 42°15' W 070°58'0 0.0
2018-Apr-20 01:00N 42°15' W 070°58'0 0.0
2018-Apr-20 00:30N 42°15' W 070°58'0 0.0
2018-Apr-20 00:00N 42°15' W 070°58'0 0.0
2018-Apr-19 23:30N 42°15' W 070°58'0 0.0
2018-Apr-19 22:59N 42°15' W 070°58'0 0.0
2018-Apr-19 22:30N 42°15' W 070°58'0 0.0
2018-Apr-19 22:00N 42°15' W 070°58'0 0.0
2018-Apr-19 21:28N 42°15' W 070°58'0 0.0
2018-Apr-19 21:00N 42°15' W 070°58'0 0.0
2018-Apr-19 20:30N 42°15' W 070°58'0 0.0
2018-Apr-19 19:59N 42°15' W 070°58'0 0.0
2018-Apr-19 19:28N 42°15' W 070°58'0 0.0
2018-Apr-19 18:59N 42°15' W 070°58'0 0.0
2018-Apr-19 18:30N 42°15' W 070°58'0 0.6
2018-Apr-19 17:59N 42°15' W 070°58'0 0.0
2018-Apr-19 17:30N 42°15' W 070°58'0 0.0
2018-Apr-19 17:00N 42°15' W 070°58'0 0.0
2018-Apr-19 16:30N 42°15' W 070°58'0 0.0
2018-Apr-19 16:00N 42°15' W 070°58'0 0.0
2018-Apr-19 15:30N 42°15' W 070°58'0 0.0
2018-Apr-19 15:00N 42°15' W 070°58'0 0.0
2018-Apr-19 14:30N 42°15' W 070°58'0 0.0
2018-Apr-19 14:01N 42°15' W 070°58'0 0.0
2018-Apr-19 13:31N 42°15' W 070°58'0 0.0
2018-Apr-19 13:00N 42°15' W 070°58'0 0.0
2018-Apr-19 12:30N 42°15' W 070°58'0 0.0
2018-Apr-19 12:01N 42°15' W 070°58'0 0.0
2018-Apr-19 11:29N 42°15' W 070°58'0 0.0
2018-Apr-19 11:00N 42°15' W 070°58'0 0.0
2018-Apr-19 10:30N 42°15' W 070°58'0 0.0
2018-Apr-19 10:00N 42°15' W 070°58'0 0.0
2018-Apr-19 09:30N 42°15' W 070°58'0 0.0
2018-Apr-19 08:59N 42°15' W 070°58'0 0.0
2018-Apr-19 08:30N 42°15' W 070°58'0 0.0
2018-Apr-19 08:00N 42°15' W 070°58'0 0.0
2018-Apr-19 07:30N 42°15' W 070°58'0 0.0
2018-Apr-19 06:59N 42°15' W 070°58'0 0.0
2018-Apr-19 06:29N 42°15' W 070°58'0 0.0
2018-Apr-19 06:00N 42°15' W 070°58'0 0.0
2018-Apr-19 05:29N 42°15' W 070°58'0 0.0
2018-Apr-19 05:01N 42°15' W 070°58'0 0.0
2018-Apr-19 04:30N 42°15' W 070°58'0 0.0
2018-Apr-19 03:59N 42°15' W 070°58'0 0.0
2018-Apr-19 03:30N 42°15' W 070°58'0 0.2
2018-Apr-19 03:00N 42°15' W 070°58'0 0.4
2018-Apr-19 02:30N 42°15' W 070°58'4 7.7
2018-Apr-19 01:59N 42°18' W 070°55'4 8.4
2018-Apr-19 01:30N 42°19' W 070°50'4 8.5
2018-Apr-19 01:00N 42°20' W 070°44'4 8.5
2018-Apr-19 00:30N 42°21' W 070°39'4 8.2
2018-Apr-19 00:00N 42°22' W 070°34'1 1.0
2018-Apr-18 23:30N 42°23' W 070°33'0 0.6
2018-Apr-18 23:00N 42°23' W 070°33'0 0.2
2018-Apr-18 22:30N 42°23' W 070°33'0 0.8
2018-Apr-18 22:00N 42°23' W 070°33'1 1.1
2018-Apr-18 21:30N 42°23' W 070°33'0 0.5
2018-Apr-18 21:00N 42°23' W 070°32'0 0.8
2018-Apr-18 20:30N 42°23' W 070°33'0 0.1
2018-Apr-18 20:00N 42°23' W 070°33'0 0.2
2018-Apr-18 19:30N 42°23' W 070°33'0 0.3
2018-Apr-18 19:00N 42°23' W 070°33'0 0.5
2018-Apr-18 18:30N 42°23' W 070°34'0 0.5
2018-Apr-18 18:00N 42°23' W 070°34'0 0.5
2018-Apr-18 17:30N 42°23' W 070°34'0 0.6
2018-Apr-18 17:00N 42°22' W 070°34'1 1.3
2018-Apr-18 16:30N 42°22' W 070°34'0 0.5
2018-Apr-18 16:00N 42°22' W 070°34'0 0.5
2018-Apr-18 15:30N 42°22' W 070°34'0 0.8
2018-Apr-18 15:00N 42°23' W 070°34'0 0.3
2018-Apr-18 14:30N 42°23' W 070°34'0 0.7
2018-Apr-18 14:00N 42°22' W 070°34'0 0.6
2018-Apr-18 13:30N 42°22' W 070°34'0 0.3
2018-Apr-18 13:00N 42°22' W 070°34'0 0.5
2018-Apr-18 12:30N 42°22' W 070°34'3 5.6
2018-Apr-18 12:00N 42°22' W 070°37'4 8.3
2018-Apr-18 11:30N 42°21' W 070°43'4 8.5
2018-Apr-18 11:00N 42°20' W 070°49'5 9.5
2018-Apr-18 10:30N 42°19' W 070°55'4 8.7
2018-Apr-18 10:00N 42°15' W 070°57'1 1.8
2018-Apr-18 09:30N 42°15' W 070°58'0 0.0
2018-Apr-18 09:00N 42°15' W 070°58'0 0.0
2018-Apr-18 08:29N 42°15' W 070°58'0 0.0
2018-Apr-18 07:58N 42°15' W 070°58'0 0.0
2018-Apr-18 07:30N 42°15' W 070°58'0 0.0
2018-Apr-18 07:00N 42°15' W 070°58'0 0.0
2018-Apr-18 06:30N 42°15' W 070°58'0 0.0
2018-Apr-18 06:00N 42°15' W 070°58'0 0.0
2018-Apr-18 05:30N 42°15' W 070°58'0 0.0
2018-Apr-18 04:59N 42°15' W 070°58'0 0.0
2018-Apr-18 04:30N 42°15' W 070°58'0 0.0
2018-Apr-18 03:59N 42°15' W 070°58'0 0.0
2018-Apr-18 03:30N 42°15' W 070°58'0 0.0
2018-Apr-18 03:00N 42°15' W 070°58'0 0.0
2018-Apr-18 02:29N 42°15' W 070°58'0 0.0
2018-Apr-18 02:00N 42°15' W 070°58'0 0.0
2018-Apr-18 01:30N 42°15' W 070°58'0 0.0
2018-Apr-18 00:59N 42°15' W 070°58'0 0.0
2018-Apr-18 00:30N 42°15' W 070°58'0 0.0
2018-Apr-18 00:00N 42°15' W 070°58'0 0.0
2018-Apr-17 23:30N 42°15' W 070°58'0 0.0
2018-Apr-17 23:00N 42°15' W 070°58'0 0.0
2018-Apr-17 22:30N 42°15' W 070°58'0 0.0
2018-Apr-17 21:59N 42°15' W 070°58'0 0.0
2018-Apr-17 21:30N 42°15' W 070°58'0 0.0
2018-Apr-17 21:00N 42°15' W 070°58'0 0.0
2018-Apr-17 20:30N 42°15' W 070°58'0 0.0
2018-Apr-17 19:49N 42°15' W 070°58'0 0.0
2018-Apr-17 19:28N 42°15' W 070°58'0 0.0
2018-Apr-17 19:01N 42°15' W 070°58'0 0.0
2018-Apr-17 18:30N 42°15' W 070°58'0 0.0
2018-Apr-17 17:59N 42°15' W 070°58'0 0.0
2018-Apr-17 17:30N 42°15' W 070°58'0 0.0
2018-Apr-17 17:00N 42°15' W 070°58'0 0.0
2018-Apr-17 16:29N 42°15' W 070°58'0 0.0
2018-Apr-17 15:59N 42°15' W 070°58'0 0.0
2018-Apr-17 15:20N 42°15' W 070°58'0 0.0
2018-Apr-17 15:00N 42°15' W 070°58'0 0.0
2018-Apr-17 14:30N 42°15' W 070°58'0 0.0
2018-Apr-17 14:00N 42°15' W 070°58'0 0.0
2018-Apr-17 13:28N 42°15' W 070°58'0 0.0
2018-Apr-17 13:00N 42°15' W 070°58'0 0.0
2018-Apr-17 12:29N 42°15' W 070°58'0 0.0
2018-Apr-17 12:00N 42°15' W 070°58'0 0.0
2018-Apr-17 11:30N 42°15' W 070°58'0 0.0
2018-Apr-17 11:00N 42°15' W 070°58'0 0.0
2018-Apr-17 10:29N 42°15' W 070°58'0 0.0
2018-Apr-17 09:55N 42°15' W 070°58'0 0.0
2018-Apr-17 09:28N 42°15' W 070°58'0 0.0
2018-Apr-17 09:01N 42°15' W 070°58'0 0.0
2018-Apr-17 08:29N 42°15' W 070°58'0 0.0
2018-Apr-17 07:59N 42°15' W 070°58'0 0.0
2018-Apr-17 07:30N 42°15' W 070°58'0 0.0
2018-Apr-17 06:17N 42°15' W 070°58'0 0.0
2018-Apr-17 03:43N 42°15' W 070°58'0 0.0
2018-Apr-17 03:23N 42°15' W 070°58'0 0.0
2018-Apr-17 02:43N 42°15' W 070°58'0 0.0
2018-Apr-17 02:22N 42°15' W 070°58'0 0.0
2018-Apr-17 01:42N 42°15' W 070°58'0 0.0
2018-Apr-17 01:22N 42°15' W 070°58'0 0.0
2018-Apr-17 00:59N 42°15' W 070°58'0 0.0
2018-Apr-17 00:30N 42°15' W 070°58'0 0.0
2018-Apr-17 00:00N 42°15' W 070°58'0 0.0
2018-Apr-16 23:30N 42°15' W 070°58'0 0.0
2018-Apr-16 22:55N 42°15' W 070°58'0 0.0
2018-Apr-16 22:29N 42°15' W 070°58'0 0.0
2018-Apr-16 21:54N 42°15' W 070°58'0 0.0
2018-Apr-16 21:30N 42°15' W 070°58'0 0.0
2018-Apr-16 21:00N 42°15' W 070°58'0 0.0
2018-Apr-16 20:29N 42°15' W 070°58'0 0.0
2018-Apr-16 20:00N 42°15' W 070°58'0 0.1
2018-Apr-16 19:30N 42°15' W 070°58'0 0.2
2018-Apr-16 19:00N 42°15' W 070°58'0 0.0
2018-Apr-16 18:30N 42°15' W 070°58'0 0.0
2018-Apr-16 18:00N 42°15' W 070°58'0 0.0
2018-Apr-16 17:30N 42°15' W 070°58'0 0.0
2018-Apr-16 17:00N 42°15' W 070°58'0 0.0
2018-Apr-16 16:30N 42°15' W 070°58'0 0.0
2018-Apr-16 16:01N 42°15' W 070°58'0 0.0
2018-Apr-16 15:30N 42°15' W 070°58'0 0.0
2018-Apr-16 15:00N 42°15' W 070°58'0 0.0
2018-Apr-16 14:30N 42°15' W 070°58'0 0.0
2018-Apr-16 14:00N 42°15' W 070°58'0 0.0
2018-Apr-16 13:30N 42°15' W 070°58'0 0.0
2018-Apr-16 13:00N 42°15' W 070°58'0 0.0
2018-Apr-16 12:29N 42°15' W 070°58'0 0.0
2018-Apr-16 12:01N 42°15' W 070°58'0 0.0
2018-Apr-16 11:30N 42°15' W 070°58'0 0.0
2018-Apr-16 11:00N 42°15' W 070°58'  
Track history (hours):
 
Tides and Currents Weather Stations Pressure Air Temp Water Temp Dewpoint Dewpoint Depression Visibility Wind Speed Wind Dir Waves Ship Positions

James K. Goodwin

Owner: Goodwin, Joshua D, Hull, MA. More information available from US FCC via Universal Licensing System and Coast Guard Vessel Documentation Center.

Last reported at 2018-Apr-26 10:58 UTC. Time now 2018-Apr-26 11:25 UTC.
Position N 42°15' W 070°58'.

Length 32 m; draft 3 m.

Type: Passenger vessel. MMSI: 367110550.

Date/timePositionNaut miles runAvg speedWind from/ knotsBaromVisibWave heightAir tempDewpointWater temp
2018-Apr-26 10:58N 42°15' W 070°58'0 0.0
2018-Apr-26 10:30N 42°15' W 070°58'0 0.0
2018-Apr-26 10:00N 42°15' W 070°58'0 0.0
2018-Apr-26 09:28N 42°15' W 070°58'0 0.0
2018-Apr-26 09:00N 42°15' W 070°58'0 0.0
2018-Apr-26 08:30N 42°15' W 070°58'0 0.0
2018-Apr-26 08:01N 42°15' W 070°58'0 0.0
2018-Apr-26 07:27N 42°15' W 070°58'0 0.0
2018-Apr-26 07:01N 42°15' W 070°58'0 0.0
2018-Apr-26 06:31N 42°15' W 070°58'0 0.0
2018-Apr-26 06:00N 42°15' W 070°58'0 0.0
2018-Apr-26 05:30N 42°15' W 070°58'0 0.0
2018-Apr-26 05:00N 42°15' W 070°58'0 0.0
2018-Apr-26 04:30N 42°15' W 070°58'0 0.0
2018-Apr-26 04:00N 42°15' W 070°58'0 0.0
2018-Apr-26 03:30N 42°15' W 070°58'0 0.0
2018-Apr-26 03:00N 42°15' W 070°58'0 0.0
2018-Apr-26 02:30N 42°15' W 070°58'0 0.0
2018-Apr-26 02:00N 42°15' W 070°58'0 0.0
2018-Apr-26 01:30N 42°15' W 070°58'0 0.0
2018-Apr-26 00:56N 42°15' W 070°58'0 0.0
2018-Apr-26 00:30N 42°15' W 070°58'0 0.0
2018-Apr-26 00:00N 42°15' W 070°58'0 0.0
2018-Apr-25 23:30N 42°15' W 070°58'0 0.0
2018-Apr-25 22:58N 42°15' W 070°58'0 0.0
2018-Apr-25 22:30N 42°15' W 070°58'0 0.0
2018-Apr-25 22:00N 42°15' W 070°58'0 0.0
2018-Apr-25 21:30N 42°15' W 070°58'0 0.0
2018-Apr-25 21:00N 42°15' W 070°58'0 0.0
2018-Apr-25 20:30N 42°15' W 070°58'0 0.0
2018-Apr-25 20:00N 42°15' W 070°58'0 0.0
2018-Apr-25 19:30N 42°15' W 070°58'0 0.0
2018-Apr-25 19:00N 42°15' W 070°58'0 0.0
2018-Apr-25 18:31N 42°15' W 070°58'0 0.0
2018-Apr-25 10:43N 42°15' W 070°58'0 0.0
2018-Apr-25 10:30N 42°15' W 070°58'0 0.0
2018-Apr-25 10:01N 42°15' W 070°58'0 0.0
2018-Apr-25 09:31N 42°15' W 070°58'0 0.0
2018-Apr-25 09:00N 42°15' W 070°58'0 0.0
2018-Apr-25 08:29N 42°15' W 070°58'0 0.0
2018-Apr-25 08:00N 42°15' W 070°58'0 0.0
2018-Apr-25 07:30N 42°15' W 070°58'0 0.0
2018-Apr-25 07:00N 42°15' W 070°58'0 0.0
2018-Apr-25 06:30N 42°15' W 070°58'0 0.0
2018-Apr-25 06:00N 42°15' W 070°58'0 0.0
2018-Apr-25 05:30N 42°15' W 070°58'0 0.0
2018-Apr-25 05:00N 42°15' W 070°58'0 0.0
2018-Apr-25 04:24N 42°15' W 070°58'0 0.1
2018-Apr-25 04:00N 42°15' W 070°58'0 0.7
2018-Apr-25 03:30N 42°15' W 070°58'0 0.0
2018-Apr-25 03:00N 42°15' W 070°58'0 0.1
2018-Apr-25 02:30N 42°15' W 070°58'1 1.3
2018-Apr-25 02:00N 42°15' W 070°58'1 2.8
2018-Apr-25 01:30N 42°16' W 070°56'1 2.9
2018-Apr-25 01:00N 42°17' W 070°56'3 5.0
2018-Apr-25 00:24N 42°15' W 070°58'613.5
2018-Apr-24 23:56N 42°19' W 070°52'4 7.5
2018-Apr-24 23:27N 42°17' W 070°56'3 7.5
2018-Apr-24 23:00N 42°19' W 070°53'4 8.3
2018-Apr-24 22:30N 42°21' W 070°47'4 8.0
2018-Apr-24 22:00N 42°22' W 070°42'4 8.1
2018-Apr-24 21:30N 42°22' W 070°37'3 5.9
2018-Apr-24 21:00N 42°23' W 070°33'0 0.6
2018-Apr-24 20:30N 42°23' W 070°33'1 1.3
2018-Apr-24 20:00N 42°23' W 070°34'0 0.2
2018-Apr-24 19:30N 42°23' W 070°34'0 0.8
2018-Apr-24 19:01N 42°23' W 070°33'0 0.5
2018-Apr-24 18:30N 42°23' W 070°33'0 0.1
2018-Apr-24 18:00N 42°23' W 070°33'0 0.1
2018-Apr-24 17:30N 42°23' W 070°33'0 0.7
2018-Apr-24 17:00N 42°23' W 070°34'0 0.2
2018-Apr-24 16:30N 42°23' W 070°34'1 2.8
2018-Apr-24 16:00N 42°23' W 070°36'1 2.5
2018-Apr-24 15:30N 42°23' W 070°37'1 1.4
2018-Apr-24 15:00N 42°23' W 070°38'3 6.3
2018-Apr-24 14:31N 42°22' W 070°42'5 9.0
2018-Apr-24 14:00N 42°21' W 070°48'5 9.4
2018-Apr-24 13:30N 42°19' W 070°54'4 8.6
2018-Apr-24 13:00N 42°15' W 070°57'1 3.0
2018-Apr-24 12:30N 42°15' W 070°58'0 0.0
2018-Apr-24 12:00N 42°15' W 070°58'0 0.0
2018-Apr-24 11:30N 42°15' W 070°58'0 0.7
2018-Apr-24 11:00N 42°15' W 070°58'0 0.0
2018-Apr-24 10:30N 42°15' W 070°58'0 0.0
2018-Apr-24 10:00N 42°15' W 070°58'0 0.0
2018-Apr-24 09:30N 42°15' W 070°58'0 0.0
2018-Apr-24 09:00N 42°15' W 070°58'0 0.0
2018-Apr-24 08:30N 42°15' W 070°58'0 0.0
2018-Apr-24 08:00N 42°15' W 070°58'0 0.0
2018-Apr-24 07:30N 42°15' W 070°58'0 0.0
2018-Apr-24 07:01N 42°15' W 070°58'0 0.0
2018-Apr-24 06:30N 42°15' W 070°58'0 0.0
2018-Apr-24 06:00N 42°15' W 070°58'0 0.0
2018-Apr-24 05:30N 42°15' W 070°58'0 0.0
2018-Apr-24 05:00N 42°15' W 070°58'0 0.0
2018-Apr-24 04:30N 42°15' W 070°58'0 0.0
2018-Apr-24 04:00N 42°15' W 070°58'0 0.0
2018-Apr-24 03:30N 42°15' W 070°58'0 0.0
2018-Apr-24 03:00N 42°15' W 070°58'0 0.0
2018-Apr-24 02:30N 42°15' W 070°58'0 0.0
2018-Apr-24 02:00N 42°15' W 070°58'0 0.5
2018-Apr-24 01:30N 42°15' W 070°58'0 0.1
2018-Apr-24 01:00N 42°15' W 070°58'0 0.0
2018-Apr-24 00:30N 42°15' W 070°58'0 0.4
2018-Apr-24 00:00N 42°15' W 070°58'0 0.0
2018-Apr-23 23:30N 42°15' W 070°58'0 0.0
2018-Apr-23 23:00N 42°15' W 070°58'0 0.0
2018-Apr-23 22:30N 42°15' W 070°58'0 0.0
2018-Apr-23 22:00N 42°15' W 070°58'0 0.0
2018-Apr-23 21:30N 42°15' W 070°58'0 0.0
2018-Apr-23 21:00N 42°15' W 070°58'0 0.0
2018-Apr-23 20:30N 42°15' W 070°58'0 0.0
2018-Apr-23 20:00N 42°15' W 070°58'0 0.0
2018-Apr-23 19:30N 42°15' W 070°58'0 0.0
2018-Apr-23 19:00N 42°15' W 070°58'0 0.0
2018-Apr-23 18:30N 42°15' W 070°58'0 0.0
2018-Apr-23 18:00N 42°15' W 070°58'0 0.0
2018-Apr-23 17:30N 42°15' W 070°58'0 0.0
2018-Apr-23 17:00N 42°15' W 070°58'0 0.0
2018-Apr-23 16:30N 42°15' W 070°58'0 0.0
2018-Apr-23 16:00N 42°15' W 070°58'0 0.0
2018-Apr-23 15:30N 42°15' W 070°58'0 0.0
2018-Apr-23 15:00N 42°15' W 070°58'0 0.0
2018-Apr-23 14:30N 42°15' W 070°58'0 0.0
2018-Apr-23 14:00N 42°15' W 070°58'0 0.0
2018-Apr-23 13:31N 42°15' W 070°58'0 0.0
2018-Apr-23 13:01N 42°15' W 070°58'0 0.0
2018-Apr-23 12:30N 42°15' W 070°58'0 0.0
2018-Apr-23 12:00N 42°15' W 070°58'0 0.0
2018-Apr-23 11:30N 42°15' W 070°58'0 0.0
2018-Apr-23 11:00N 42°15' W 070°58'0 0.0
2018-Apr-23 10:30N 42°15' W 070°58'0 0.0
2018-Apr-23 10:00N 42°15' W 070°58'0 0.0
2018-Apr-23 09:30N 42°15' W 070°58'0 0.0
2018-Apr-23 09:00N 42°15' W 070°58'0 0.0
2018-Apr-23 08:30N 42°15' W 070°58'0 0.0
2018-Apr-23 08:00N 42°15' W 070°58'0 0.0
2018-Apr-23 07:30N 42°15' W 070°58'0 0.0
2018-Apr-23 07:00N 42°15' W 070°58'0 0.0
2018-Apr-23 06:30N 42°15' W 070°58'0 0.0
2018-Apr-23 06:00N 42°15' W 070°58'0 0.0
2018-Apr-23 05:30N 42°15' W 070°58'0 0.0
2018-Apr-23 05:00N 42°15' W 070°58'0 0.0
2018-Apr-23 04:30N 42°15' W 070°58'0 0.0
2018-Apr-23 04:00N 42°15' W 070°58'0 0.0
2018-Apr-23 03:30N 42°15' W 070°58'0 0.0
2018-Apr-23 03:00N 42°15' W 070°58'0 0.0
2018-Apr-23 02:30N 42°15' W 070°58'0 0.0
2018-Apr-23 02:00N 42°15' W 070°58'0 0.0
2018-Apr-23 01:30N 42°15' W 070°58'0 0.0
2018-Apr-23 01:00N 42°15' W 070°58'0 0.0
2018-Apr-23 00:30N 42°15' W 070°58'0 0.0
2018-Apr-23 00:01N 42°15' W 070°58'0 0.0
2018-Apr-22 23:30N 42°15' W 070°58'0 0.0
2018-Apr-22 23:00N 42°15' W 070°58'0 0.0
2018-Apr-22 22:30N 42°15' W 070°58'0 0.0
2018-Apr-22 22:00N 42°15' W 070°58'0 0.0
2018-Apr-22 21:30N 42°15' W 070°58'0 0.0
2018-Apr-22 21:01N 42°15' W 070°58'0 0.0
2018-Apr-22 20:30N 42°15' W 070°58'0 0.0
2018-Apr-22 20:00N 42°15' W 070°58'0 0.0
2018-Apr-22 19:30N 42°15' W 070°58'0 0.0
2018-Apr-22 19:00N 42°15' W 070°58'0 0.0
2018-Apr-22 18:31N 42°15' W 070°58'0 0.0
2018-Apr-22 18:00N 42°15' W 070°58'0 0.0
2018-Apr-22 17:30N 42°15' W 070°58'0 0.0
2018-Apr-22 17:00N 42°15' W 070°58'0 0.0
2018-Apr-22 16:30N 42°15' W 070°58'0 0.0
2018-Apr-22 16:00N 42°15' W 070°58'0 0.0
2018-Apr-22 15:31N 42°15' W 070°58'0 0.0
2018-Apr-22 15:00N 42°15' W 070°58'0 0.0
2018-Apr-22 14:30N 42°15' W 070°58'0 0.0
2018-Apr-22 14:00N 42°15' W 070°58'0 0.0
2018-Apr-22 13:30N 42°15' W 070°58'0 0.0
2018-Apr-22 13:00N 42°15' W 070°58'0 0.0
2018-Apr-22 12:30N 42°15' W 070°58'0 0.0
2018-Apr-22 12:00N 42°15' W 070°58'0 0.0
2018-Apr-22 11:30N 42°15' W 070°58'0 0.0
2018-Apr-22 11:00N 42°15' W 070°58'0 0.0
2018-Apr-22 10:30N 42°15' W 070°58'0 0.0
2018-Apr-22 10:00N 42°15' W 070°58'0 0.0
2018-Apr-22 09:30N 42°15' W 070°58'0 0.0
2018-Apr-22 09:00N 42°15' W 070°58'0 0.0
2018-Apr-22 08:30N 42°15' W 070°58'0 0.0
2018-Apr-22 08:00N 42°15' W 070°58'0 0.0
2018-Apr-22 07:30N 42°15' W 070°58'0 0.0
2018-Apr-22 06:57N 42°15' W 070°58'0 0.0
2018-Apr-22 06:28N 42°15' W 070°58'0 0.0
2018-Apr-22 05:51N 42°15' W 070°58'0 0.0
2018-Apr-22 05:30N 42°15' W 070°58'0 0.0
2018-Apr-22 04:57N 42°15' W 070°58'0 0.0
2018-Apr-22 04:29N 42°15' W 070°58'0 0.0
2018-Apr-22 03:55N 42°15' W 070°58'0 0.0
2018-Apr-22 03:26N 42°15' W 070°58'0 0.0
2018-Apr-22 02:49N 42°15' W 070°58'0 0.0
2018-Apr-22 02:29N 42°15' W 070°58'0 0.0
2018-Apr-22 01:56N 42°15' W 070°58'0 0.0
2018-Apr-22 01:30N 42°15' W 070°58'0 0.0
2018-Apr-22 00:48N 42°15' W 070°58'0 0.0
2018-Apr-22 00:27N 42°15' W 070°58'0 0.0
2018-Apr-22 00:00N 42°15' W 070°58'0 0.0
2018-Apr-21 23:30N 42°15' W 070°58'0 0.0
2018-Apr-21 22:58N 42°15' W 070°58'0 0.0
2018-Apr-21 22:30N 42°15' W 070°58'0 0.0
2018-Apr-21 21:57N 42°15' W 070°58'0 0.0
2018-Apr-21 21:30N 42°15' W 070°58'0 0.0
2018-Apr-21 21:00N 42°15' W 070°58'0 0.0
2018-Apr-21 20:26N 42°15' W 070°58'0 0.0
2018-Apr-21 19:50N 42°15' W 070°58'0 0.0
2018-Apr-21 19:15N 42°15' W 070°58'0 0.0
2018-Apr-21 18:48N 42°15' W 070°58'0 0.0
2018-Apr-21 18:27N 42°15' W 070°58'0 0.0
2018-Apr-21 17:55N 42°15' W 070°58'0 0.0
2018-Apr-21 17:30N 42°15' W 070°58'0 0.0
2018-Apr-21 16:40N 42°15' W 070°58'0 0.0
2018-Apr-21 15:48N 42°15' W 070°58'0 0.0
2018-Apr-21 15:21N 42°15' W 070°58'0 0.0
2018-Apr-21 14:55N 42°15' W 070°58'0 0.0
2018-Apr-21 14:25N 42°15' W 070°58'0 0.0
2018-Apr-21 13:57N 42°15' W 070°58'0 0.0
2018-Apr-21 13:29N 42°15' W 070°58'0 0.0
2018-Apr-21 12:05N 42°15' W 070°58'0 0.0
2018-Apr-21 11:43N 42°15' W 070°58'0 0.0
2018-Apr-21 11:18N 42°15' W 070°58'0 0.0
2018-Apr-21 10:43N 42°15' W 070°58'0 0.0
2018-Apr-21 10:25N 42°15' W 070°58'0 0.0
2018-Apr-21 09:56N 42°15' W 070°58'0 0.0
2018-Apr-21 09:11N 42°15' W 070°58'0 0.0
2018-Apr-21 08:31N 42°15' W 070°58'0 0.0
2018-Apr-21 06:50N 42°15' W 070°58'0 0.0
2018-Apr-21 06:24N 42°15' W 070°58'0 0.0
2018-Apr-21 05:36N 42°15' W 070°58'0 0.0
2018-Apr-21 05:05N 42°15' W 070°58'0 0.0
2018-Apr-21 04:52N 42°15' W 070°58'0 0.0
2018-Apr-21 04:24N 42°15' W 070°58'0 0.0
2018-Apr-21 03:46N 42°15' W 070°58'0 0.0
2018-Apr-21 03:15N 42°15' W 070°58'0 0.0
2018-Apr-21 02:56N 42°15' W 070°58'0 0.0
2018-Apr-21 02:30N 42°15' W 070°58'0 0.0
2018-Apr-21 02:00N 42°15' W 070°58'0 0.0
2018-Apr-21 01:30N 42°15' W 070°58'0 0.0
2018-Apr-21 00:57N 42°15' W 070°58'0 0.0
2018-Apr-21 00:27N 42°15' W 070°58'0 0.0
2018-Apr-20 23:58N 42°15' W 070°58'0 0.0
2018-Apr-20 23:21N 42°15' W 070°58'0 0.0
2018-Apr-20 22:57N 42°15' W 070°58'0 0.0
2018-Apr-20 22:26N 42°15' W 070°58'0 0.0
2018-Apr-20 21:10N 42°15' W 070°58'0 0.0
2018-Apr-20 20:09N 42°15' W 070°58'0 0.0
2018-Apr-20 19:47N 42°15' W 070°58'0 0.0
2018-Apr-20 19:11N 42°15' W 070°58'0 0.0
2018-Apr-20 18:56N 42°15' W 070°58'0 0.0
2018-Apr-20 18:25N 42°15' W 070°58'0 0.0
2018-Apr-20 17:11N 42°15' W 070°58'0 0.0
2018-Apr-20 16:02N 42°15' W 070°58'0 0.1
2018-Apr-20 15:58N 42°15' W 070°58'0 0.0
2018-Apr-20 15:29N 42°15' W 070°58'0 0.0
2018-Apr-20 13:18N 42°15' W 070°58'0 0.0
2018-Apr-20 12:51N 42°15' W 070°58'0 0.0
2018-Apr-20 12:12N 42°15' W 070°58'0 0.0
2018-Apr-20 11:44N 42°15' W 070°58'0 0.0
2018-Apr-20 11:18N 42°15' W 070°58'0 0.0
2018-Apr-20 10:43N 42°15' W 070°58'0 0.0
2018-Apr-20 10:23N 42°15' W 070°58'0 0.0
2018-Apr-20 09:42N 42°15' W 070°58'0 0.0
2018-Apr-20 09:23N 42°15' W 070°58'0 0.0
2018-Apr-20 09:00N 42°15' W 070°58'0 0.0
2018-Apr-20 08:14N 42°15' W 070°58'0 0.0
2018-Apr-20 07:51N 42°15' W 070°58'0 0.0
2018-Apr-20 07:26N 42°15' W 070°58'0 0.0
2018-Apr-20 07:00N 42°15' W 070°58'0 0.0
2018-Apr-20 06:29N 42°15' W 070°58'0 0.0
2018-Apr-20 06:00N 42°15' W 070°58'0 0.0
2018-Apr-20 05:30N 42°15' W 070°58'0 0.0
2018-Apr-20 05:00N 42°15' W 070°58'0 0.0
2018-Apr-20 04:31N 42°15' W 070°58'0 0.0
2018-Apr-20 03:59N 42°15' W 070°58'0 0.0
2018-Apr-20 03:30N 42°15' W 070°58'0 0.0
2018-Apr-20 03:00N 42°15' W 070°58'0 0.0
2018-Apr-20 02:31N 42°15' W 070°58'0 0.0
2018-Apr-20 01:59N 42°15' W 070°58'0 0.0
2018-Apr-20 01:31N 42°15' W 070°58'0 0.0
2018-Apr-20 01:00N 42°15' W 070°58'0 0.0
2018-Apr-20 00:30N 42°15' W 070°58'0 0.0
2018-Apr-20 00:00N 42°15' W 070°58'0 0.0
2018-Apr-19 23:30N 42°15' W 070°58'0 0.0
2018-Apr-19 22:59N 42°15' W 070°58'0 0.0
2018-Apr-19 22:30N 42°15' W 070°58'0 0.0
2018-Apr-19 22:00N 42°15' W 070°58'0 0.0
2018-Apr-19 21:28N 42°15' W 070°58'0 0.0
2018-Apr-19 21:00N 42°15' W 070°58'0 0.0
2018-Apr-19 20:30N 42°15' W 070°58'0 0.0
2018-Apr-19 19:59N 42°15' W 070°58'0 0.0
2018-Apr-19 19:28N 42°15' W 070°58'0 0.0
2018-Apr-19 18:59N 42°15' W 070°58'0 0.0
2018-Apr-19 18:30N 42°15' W 070°58'0 0.6
2018-Apr-19 17:59N 42°15' W 070°58'0 0.0
2018-Apr-19 17:30N 42°15' W 070°58'0 0.0
2018-Apr-19 17:00N 42°15' W 070°58'0 0.0
2018-Apr-19 16:30N 42°15' W 070°58'0 0.0
2018-Apr-19 16:00N 42°15' W 070°58'0 0.0
2018-Apr-19 15:30N 42°15' W 070°58'0 0.0
2018-Apr-19 15:00N 42°15' W 070°58'0 0.0
2018-Apr-19 14:30N 42°15' W 070°58'0 0.0
2018-Apr-19 14:01N 42°15' W 070°58'0 0.0
2018-Apr-19 13:31N 42°15' W 070°58'0 0.0
2018-Apr-19 13:00N 42°15' W 070°58'0 0.0
2018-Apr-19 12:30N 42°15' W 070°58'0 0.0
2018-Apr-19 12:01N 42°15' W 070°58'0 0.0
2018-Apr-19 11:29N 42°15' W 070°58'0 0.0
2018-Apr-19 11:00N 42°15' W 070°58'0 0.0
2018-Apr-19 10:30N 42°15' W 070°58'0 0.0
2018-Apr-19 10:00N 42°15' W 070°58'0 0.0
2018-Apr-19 09:30N 42°15' W 070°58'0 0.0
2018-Apr-19 08:59N 42°15' W 070°58'0 0.0
2018-Apr-19 08:30N 42°15' W 070°58'0 0.0
2018-Apr-19 08:00N 42°15' W 070°58'0 0.0
2018-Apr-19 07:30N 42°15' W 070°58'0 0.0
2018-Apr-19 06:59N 42°15' W 070°58'0 0.0
2018-Apr-19 06:29N 42°15' W 070°58'0 0.0
2018-Apr-19 06:00N 42°15' W 070°58'0 0.0
2018-Apr-19 05:29N 42°15' W 070°58'0 0.0
2018-Apr-19 05:01N 42°15' W 070°58'0 0.0
2018-Apr-19 04:30N 42°15' W 070°58'0 0.0
2018-Apr-19 03:59N 42°15' W 070°58'0 0.0
2018-Apr-19 03:30N 42°15' W 070°58'0 0.2
2018-Apr-19 03:00N 42°15' W 070°58'0 0.4
2018-Apr-19 02:30N 42°15' W 070°58'4 7.7
2018-Apr-19 01:59N 42°18' W 070°55'4 8.4
2018-Apr-19 01:30N 42°19' W 070°50'4 8.5
2018-Apr-19 01:00N 42°20' W 070°44'4 8.5
2018-Apr-19 00:30N 42°21' W 070°39'4 8.2
2018-Apr-19 00:00N 42°22' W 070°34'1 1.0
2018-Apr-18 23:30N 42°23' W 070°33'0 0.6
2018-Apr-18 23:00N 42°23' W 070°33'0 0.2
2018-Apr-18 22:30N 42°23' W 070°33'0 0.8
2018-Apr-18 22:00N 42°23' W 070°33'1 1.1
2018-Apr-18 21:30N 42°23' W 070°33'0 0.5
2018-Apr-18 21:00N 42°23' W 070°32'0 0.8
2018-Apr-18 20:30N 42°23' W 070°33'0 0.1
2018-Apr-18 20:00N 42°23' W 070°33'0 0.2
2018-Apr-18 19:30N 42°23' W 070°33'0 0.3
2018-Apr-18 19:00N 42°23' W 070°33'0 0.5
2018-Apr-18 18:30N 42°23' W 070°34'0 0.5
2018-Apr-18 18:00N 42°23' W 070°34'0 0.5
2018-Apr-18 17:30N 42°23' W 070°34'0 0.6
2018-Apr-18 17:00N 42°22' W 070°34'1 1.3
2018-Apr-18 16:30N 42°22' W 070°34'0 0.5
2018-Apr-18 16:00N 42°22' W 070°34'0 0.5
2018-Apr-18 15:30N 42°22' W 070°34'0 0.8
2018-Apr-18 15:00N 42°23' W 070°34'0 0.3
2018-Apr-18 14:30N 42°23' W 070°34'0 0.7
2018-Apr-18 14:00N 42°22' W 070°34'0 0.6
2018-Apr-18 13:30N 42°22' W 070°34'0 0.3
2018-Apr-18 13:00N 42°22' W 070°34'0 0.5
2018-Apr-18 12:30N 42°22' W 070°34'3 5.6
2018-Apr-18 12:00N 42°22' W 070°37'4 8.3
2018-Apr-18 11:30N 42°21' W 070°43'4 8.5
2018-Apr-18 11:00N 42°20' W 070°49'5 9.5
2018-Apr-18 10:30N 42°19' W 070°55'4 8.7
2018-Apr-18 10:00N 42°15' W 070°57'1 1.8
2018-Apr-18 09:30N 42°15' W 070°58'0 0.0
2018-Apr-18 09:00N 42°15' W 070°58'0 0.0
2018-Apr-18 08:29N 42°15' W 070°58'0 0.0
2018-Apr-18 07:58N 42°15' W 070°58'0 0.0
2018-Apr-18 07:30N 42°15' W 070°58'0 0.0
2018-Apr-18 07:00N 42°15' W 070°58'0 0.0
2018-Apr-18 06:30N 42°15' W 070°58'0 0.0
2018-Apr-18 06:00N 42°15' W 070°58'0 0.0
2018-Apr-18 05:30N 42°15' W 070°58'0 0.0
2018-Apr-18 04:59N 42°15' W 070°58'0 0.0
2018-Apr-18 04:30N 42°15' W 070°58'0 0.0
2018-Apr-18 03:59N 42°15' W 070°58'0 0.0
2018-Apr-18 03:30N 42°15' W 070°58'0 0.0
2018-Apr-18 03:00N 42°15' W 070°58'0 0.0
2018-Apr-18 02:29N 42°15' W 070°58'0 0.0
2018-Apr-18 02:00N 42°15' W 070°58'0 0.0
2018-Apr-18 01:30N 42°15' W 070°58'0 0.0
2018-Apr-18 00:59N 42°15' W 070°58'0 0.0
2018-Apr-18 00:30N 42°15' W 070°58'0 0.0
2018-Apr-18 00:00N 42°15' W 070°58'0 0.0
2018-Apr-17 23:30N 42°15' W 070°58'0 0.0
2018-Apr-17 23:00N 42°15' W 070°58'0 0.0
2018-Apr-17 22:30N 42°15' W 070°58'0 0.0
2018-Apr-17 21:59N 42°15' W 070°58'0 0.0
2018-Apr-17 21:30N 42°15' W 070°58'0 0.0
2018-Apr-17 21:00N 42°15' W 070°58'0 0.0
2018-Apr-17 20:30N 42°15' W 070°58'0 0.0
2018-Apr-17 19:49N 42°15' W 070°58'0 0.0
2018-Apr-17 19:28N 42°15' W 070°58'0 0.0
2018-Apr-17 19:01N 42°15' W 070°58'0 0.0
2018-Apr-17 18:30N 42°15' W 070°58'0 0.0
2018-Apr-17 17:59N 42°15' W 070°58'0 0.0
2018-Apr-17 17:30N 42°15' W 070°58'0 0.0
2018-Apr-17 17:00N 42°15' W 070°58'0 0.0
2018-Apr-17 16:29N 42°15' W 070°58'0 0.0
2018-Apr-17 15:59N 42°15' W 070°58'0 0.0
2018-Apr-17 15:20N 42°15' W 070°58'0 0.0
2018-Apr-17 15:00N 42°15' W 070°58'0 0.0
2018-Apr-17 14:30N 42°15' W 070°58'0 0.0
2018-Apr-17 14:00N 42°15' W 070°58'0 0.0
2018-Apr-17 13:28N 42°15' W 070°58'0 0.0
2018-Apr-17 13:00N 42°15' W 070°58'0 0.0
2018-Apr-17 12:29N 42°15' W 070°58'0 0.0
2018-Apr-17 12:00N 42°15' W 070°58'0 0.0
2018-Apr-17 11:30N 42°15' W 070°58'0 0.0
2018-Apr-17 11:00N 42°15' W 070°58'0 0.0
2018-Apr-17 10:29N 42°15' W 070°58'0 0.0
2018-Apr-17 09:55N 42°15' W 070°58'0 0.0
2018-Apr-17 09:28N 42°15' W 070°58'0 0.0
2018-Apr-17 09:01N 42°15' W 070°58'0 0.0
2018-Apr-17 08:29N 42°15' W 070°58'0 0.0
2018-Apr-17 07:59N 42°15' W 070°58'0 0.0
2018-Apr-17 07:30N 42°15' W 070°58'0 0.0
2018-Apr-17 06:17N 42°15' W 070°58'0 0.0
2018-Apr-17 03:43N 42°15' W 070°58'0 0.0
2018-Apr-17 03:23N 42°15' W 070°58'0 0.0
2018-Apr-17 02:43N 42°15' W 070°58'0 0.0
2018-Apr-17 02:22N 42°15' W 070°58'0 0.0
2018-Apr-17 01:42N 42°15' W 070°58'0 0.0
2018-Apr-17 01:22N 42°15' W 070°58'0 0.0
2018-Apr-17 00:59N 42°15' W 070°58'0 0.0
2018-Apr-17 00:30N 42°15' W 070°58'0 0.0
2018-Apr-17 00:00N 42°15' W 070°58'0 0.0
2018-Apr-16 23:30N 42°15' W 070°58'0 0.0
2018-Apr-16 22:55N 42°15' W 070°58'0 0.0
2018-Apr-16 22:29N 42°15' W 070°58'0 0.0
2018-Apr-16 21:54N 42°15' W 070°58'0 0.0
2018-Apr-16 21:30N 42°15' W 070°58'0 0.0
2018-Apr-16 21:00N 42°15' W 070°58'0 0.0
2018-Apr-16 20:29N 42°15' W 070°58'0 0.0
2018-Apr-16 20:00N 42°15' W 070°58'0 0.1
2018-Apr-16 19:30N 42°15' W 070°58'0 0.2
2018-Apr-16 19:00N 42°15' W 070°58'0 0.0
2018-Apr-16 18:30N 42°15' W 070°58'0 0.0
2018-Apr-16 18:00N 42°15' W 070°58'0 0.0
2018-Apr-16 17:30N 42°15' W 070°58'0 0.0
2018-Apr-16 17:00N 42°15' W 070°58'0 0.0
2018-Apr-16 16:30N 42°15' W 070°58'0 0.0
2018-Apr-16 16:01N 42°15' W 070°58'0 0.0
2018-Apr-16 15:30N 42°15' W 070°58'0 0.0
2018-Apr-16 15:00N 42°15' W 070°58'0 0.0
2018-Apr-16 14:30N 42°15' W 070°58'0 0.0
2018-Apr-16 14:00N 42°15' W 070°58'0 0.0
2018-Apr-16 13:30N 42°15' W 070°58'0 0.0
2018-Apr-16 13:00N 42°15' W 070°58'0 0.0
2018-Apr-16 12:29N 42°15' W 070°58'0 0.0
2018-Apr-16 12:01N 42°15' W 070°58'0 0.0
2018-Apr-16 11:30N 42°15' W 070°58'0 0.0
2018-Apr-16 11:00N 42°15' W 070°58'  

Dump ship's entire track history